createdAt,value
2019-02-04T00:03:48.583Z,39.60
2019-02-04T00:08:50.019Z,39.50
2019-02-04T00:13:51.674Z,39.50
2019-02-04T00:18:53.051Z,39.40
2019-02-04T00:23:54.518Z,39.40
2019-02-04T00:28:55.979Z,39.40
2019-02-04T00:33:57.363Z,39.60
2019-02-04T00:38:58.763Z,39.40
2019-02-04T00:44:00.175Z,39.50
2019-02-04T00:49:01.605Z,39.30
2019-02-04T00:54:04.267Z,39.40
2019-02-04T00:59:05.944Z,39.30
2019-02-04T01:04:07.401Z,39.10
2019-02-04T01:09:09.039Z,39.20
2019-02-04T01:14:10.445Z,38.90
2019-02-04T01:19:11.770Z,39.10
2019-02-04T01:24:13.163Z,39.10
2019-02-04T01:29:14.517Z,39.00
2019-02-04T01:34:15.902Z,39.30
2019-02-04T01:39:17.334Z,39.30
2019-02-04T01:44:18.751Z,39.10
2019-02-04T01:49:20.195Z,39.20
2019-02-04T01:54:21.649Z,39.20
2019-02-04T01:59:22.989Z,39.20
2019-02-04T02:04:24.375Z,39.10
2019-02-04T02:09:25.756Z,39.10
2019-02-04T02:14:27.081Z,39.70
2019-02-04T02:19:28.473Z,38.90
2019-02-04T02:24:29.806Z,38.80
2019-02-04T02:29:31.634Z,38.50
2019-02-04T02:34:32.947Z,38.80
2019-02-04T02:39:34.464Z,38.90
2019-02-04T02:44:35.881Z,38.80
2019-02-04T02:49:37.282Z,38.80
2019-02-04T02:54:38.609Z,38.70
2019-02-04T02:59:40.084Z,38.70
2019-02-04T03:04:41.441Z,38.80
2019-02-04T03:09:42.832Z,38.70
2019-02-04T03:14:44.170Z,38.80
2019-02-04T03:19:45.549Z,38.80
2019-02-04T03:24:46.929Z,38.80
2019-02-04T03:29:48.317Z,38.70
2019-02-04T03:34:50.073Z,38.70
2019-02-04T03:39:51.530Z,38.90
2019-02-04T03:44:52.889Z,38.70
2019-02-04T03:49:54.261Z,38.70
2019-02-04T03:54:55.590Z,38.70
2019-02-04T03:59:57.603Z,38.80
2019-02-04T04:04:58.988Z,38.60
2019-02-04T04:10:00.434Z,38.60
2019-02-04T04:15:02.097Z,38.60
2019-02-04T04:20:09.176Z,38.20
2019-02-04T04:25:16.126Z,38.60
2019-02-04T04:30:27.983Z,38.50
2019-02-04T04:35:29.751Z,38.60
2019-02-04T04:40:32.219Z,38.70
2019-02-04T04:45:33.717Z,38.50
2019-02-04T04:50:35.067Z,38.80
2019-02-04T04:55:36.574Z,38.40
2019-02-04T05:00:38.324Z,38.50
2019-02-04T05:05:39.696Z,38.70
2019-02-04T05:10:41.177Z,38.50
2019-02-04T05:15:42.738Z,38.80
2019-02-04T05:20:44.068Z,38.40
2019-02-04T05:25:45.479Z,38.60
2019-02-04T05:30:46.842Z,38.30
2019-02-04T05:35:48.379Z,38.30
2019-02-04T05:40:49.728Z,38.30
2019-02-04T05:45:51.112Z,38.80
2019-02-04T05:50:52.570Z,38.50
2019-02-04T05:55:54.031Z,39.10
2019-02-04T06:00:55.524Z,38.60
2019-02-04T06:05:57.197Z,38.30
2019-02-04T06:10:58.533Z,38.30
2019-02-04T06:16:00.027Z,38.50
2019-02-04T06:21:01.363Z,38.70
2019-02-04T06:26:02.956Z,38.30
2019-02-04T06:31:04.435Z,38.30
2019-02-04T06:36:05.797Z,38.40
2019-02-04T06:41:07.251Z,38.20
2019-02-04T06:46:08.591Z,38.30
2019-02-04T06:51:10.135Z,38.60
2019-02-04T06:56:11.525Z,38.30
2019-02-04T07:01:12.910Z,38.30
2019-02-04T07:06:14.282Z,38.30
2019-02-04T07:11:15.937Z,38.40
2019-02-04T07:16:17.271Z,38.60
2019-02-04T07:21:21.014Z,38.30
2019-02-04T07:26:21.968Z,38.30
2019-02-04T07:31:23.343Z,38.50
2019-02-04T07:36:24.727Z,38.30
2019-02-04T07:41:26.171Z,38.50
2019-02-04T07:46:27.548Z,38.80
2019-02-04T07:51:29.423Z,38.50
2019-02-04T07:56:30.753Z,38.80
2019-02-04T08:01:32.174Z,38.60
2019-02-04T08:06:33.587Z,38.30
2019-02-04T08:11:34.977Z,38.70
2019-02-04T08:16:36.315Z,38.50
2019-02-04T08:21:38.557Z,38.40
2019-02-04T08:26:40.007Z,38.30
2019-02-04T08:31:41.435Z,38.30
2019-02-04T08:36:46.043Z,38.70
2019-02-04T08:41:46.129Z,38.90
2019-02-04T08:46:47.470Z,38.80
2019-02-04T08:51:48.866Z,38.50
2019-02-04T08:56:50.322Z,38.70
2019-02-04T09:01:51.666Z,38.50
2019-02-04T09:06:53.067Z,38.60
2019-02-04T09:11:56.189Z,38.30
2019-02-04T09:16:57.649Z,38.70
2019-02-04T09:21:59.185Z,39.00
2019-02-04T09:27:00.566Z,38.80
2019-02-04T09:32:01.925Z,39.80
2019-02-04T09:37:03.601Z,38.80
2019-02-04T09:42:05.237Z,38.60
2019-02-04T09:47:06.702Z,38.50
2019-02-04T09:52:08.106Z,38.60
2019-02-04T09:57:09.542Z,38.90
2019-02-04T10:02:11.026Z,38.50
2019-02-04T10:07:12.602Z,38.30
2019-02-04T10:12:13.976Z,38.30
2019-02-04T10:17:15.331Z,38.70
2019-02-04T10:22:16.735Z,38.20
2019-02-04T10:27:18.160Z,38.50
2019-02-04T10:32:19.818Z,38.30
2019-02-04T10:37:21.347Z,38.70
2019-02-04T10:42:22.872Z,38.50
2019-02-04T10:47:25.253Z,38.70
2019-02-04T10:52:26.634Z,38.20
2019-02-04T10:57:40.009Z,38.50
2019-02-04T11:02:31.374Z,38.40
2019-02-04T11:07:32.802Z,38.50
2019-02-04T11:12:34.692Z,39.00
2019-02-04T11:17:36.151Z,38.60
2019-02-04T11:22:37.475Z,38.50
2019-02-04T11:27:38.930Z,38.90
2019-02-04T11:32:40.399Z,38.40
2019-02-04T11:37:42.160Z,38.20
2019-02-04T11:42:43.571Z,38.10
2019-02-04T11:47:46.011Z,38.30
2019-02-04T11:52:47.361Z,38.40
2019-02-04T11:57:48.803Z,38.30
2019-02-04T12:02:52.018Z,38.60
2019-02-04T12:07:53.394Z,38.40
2019-02-04T12:12:54.890Z,38.30
2019-02-04T12:17:56.260Z,38.40
2019-02-04T12:22:57.822Z,38.10
2019-02-04T12:27:59.195Z,38.30
2019-02-04T12:33:02.859Z,38.40
2019-02-04T12:38:05.494Z,38.30
2019-02-04T12:43:07.369Z,38.30
2019-02-04T12:48:08.840Z,38.30
2019-02-04T12:53:10.592Z,38.20
2019-02-04T12:58:11.985Z,38.80
2019-02-04T13:03:13.322Z,38.50
2019-02-04T13:08:14.923Z,38.30
2019-02-04T13:13:17.482Z,38.10
2019-02-04T13:18:19.069Z,38.10
2019-02-04T13:23:20.412Z,37.90
2019-02-04T13:28:22.229Z,38.10
2019-02-04T13:33:23.785Z,38.10
2019-02-04T13:38:25.150Z,38.30
2019-02-04T13:43:26.479Z,38.30
2019-02-04T13:48:28.378Z,38.20
2019-02-04T13:53:29.749Z,38.30
2019-02-04T13:58:31.087Z,38.20
2019-02-04T14:03:32.489Z,38.30
2019-02-04T14:08:33.915Z,38.20
2019-02-04T14:13:35.335Z,38.30
2019-02-04T14:18:36.748Z,37.80
2019-02-04T14:23:38.252Z,38.20
2019-02-04T14:28:39.711Z,37.80
2019-02-04T14:33:41.146Z,38.30
2019-02-04T14:38:42.544Z,38.20
2019-02-04T14:43:44.303Z,38.30
2019-02-04T14:48:56.495Z,38.30
2019-02-04T14:54:39.481Z,38.20
2019-02-04T14:59:46.253Z,38.20
2019-02-04T15:05:02.287Z,38.30
2019-02-04T15:10:24.892Z,38.00
2019-02-04T15:15:59.248Z,38.30
2019-02-04T15:21:24.582Z,38.40
2019-02-04T15:27:14.491Z,38.20
2019-02-04T15:32:25.659Z,38.60
2019-02-04T15:37:35.309Z,38.30
2019-02-04T15:43:11.600Z,38.10
2019-02-04T15:48:16.704Z,38.30
2019-02-04T15:53:18.141Z,38.50
2019-02-04T15:58:19.495Z,38.50
2019-02-04T16:03:21.694Z,38.50
2019-02-04T16:08:23.055Z,38.40
2019-02-04T16:13:24.390Z,38.50
2019-02-04T16:18:25.811Z,38.20
2019-02-04T16:23:27.222Z,38.30
2019-02-04T16:28:28.627Z,38.30
2019-02-04T16:33:30.054Z,38.60
2019-02-04T16:38:31.441Z,38.50
2019-02-04T16:43:33.121Z,38.40
2019-02-04T16:48:34.460Z,39.00
2019-02-04T16:53:35.936Z,38.80
2019-02-04T16:58:37.288Z,38.70
2019-02-04T17:03:38.679Z,38.50
2019-02-04T17:08:40.154Z,39.00
2019-02-04T17:13:41.598Z,39.00
2019-02-04T17:18:43.016Z,38.60
2019-02-04T17:23:44.746Z,39.10
2019-02-04T17:28:46.111Z,39.10
2019-02-04T17:33:47.446Z,39.50
2019-02-04T17:38:49.150Z,39.30
2019-02-04T17:43:50.586Z,39.10
2019-02-04T17:48:51.985Z,39.10
2019-02-04T17:53:53.342Z,39.60
2019-02-04T17:58:54.699Z,38.90
2019-02-04T18:03:56.186Z,38.70
2019-02-04T18:08:57.611Z,38.90
2019-02-04T18:13:59.004Z,38.50
2019-02-04T18:19:00.338Z,38.50
2019-02-04T18:24:01.738Z,38.90
2019-02-04T18:29:03.499Z,38.70
2019-02-04T18:34:05.169Z,38.50
2019-02-04T18:39:07.745Z,38.90
2019-02-04T18:44:09.999Z,38.30
2019-02-04T18:49:11.734Z,38.60
2019-02-04T18:54:13.193Z,38.50
2019-02-04T18:59:14.566Z,38.60
2019-02-04T19:04:16.050Z,38.80
2019-02-04T19:09:17.520Z,38.80
2019-02-04T19:14:18.930Z,38.80
2019-02-04T19:19:20.731Z,38.70
2019-02-04T19:24:22.062Z,38.80
2019-02-04T19:29:23.448Z,39.00
2019-02-04T19:34:24.851Z,39.00
2019-02-04T19:39:26.156Z,38.80
2019-02-04T19:44:27.645Z,38.60
2019-02-04T19:49:28.982Z,38.50
2019-02-04T19:54:30.380Z,38.70
2019-02-04T19:59:31.709Z,38.40
2019-02-04T20:04:33.093Z,38.50
2019-02-04T20:09:34.530Z,38.40
2019-02-04T20:14:36.037Z,39.20
2019-02-04T20:19:37.370Z,38.40
2019-02-04T20:24:38.768Z,38.80
2019-02-04T20:29:40.100Z,38.50
2019-02-04T20:34:41.599Z,38.70
2019-02-04T20:39:42.975Z,38.70
2019-02-04T20:44:44.362Z,38.70
2019-02-04T20:49:45.695Z,39.30
2019-02-04T20:54:47.431Z,38.80
2019-02-04T20:59:48.930Z,38.80
2019-02-04T21:04:51.361Z,38.60
2019-02-04T21:09:53.742Z,38.60
2019-02-04T21:14:55.108Z,39.00
2019-02-04T21:19:56.436Z,38.50
2019-02-04T21:24:57.822Z,38.70
2019-02-04T21:29:59.199Z,38.50
2019-02-04T21:35:00.959Z,38.60
2019-02-04T21:40:07.194Z,38.70
2019-02-04T21:45:13.219Z,38.70
2019-02-04T21:50:26.874Z,38.70
2019-02-04T21:55:28.239Z,38.70
2019-02-04T22:00:36.519Z,38.70
2019-02-04T22:05:37.993Z,38.70
2019-02-04T22:10:39.603Z,38.70
2019-02-04T22:15:41.032Z,38.60
2019-02-04T22:20:42.486Z,38.70
2019-02-04T22:25:43.904Z,38.50
2019-02-04T22:30:45.330Z,38.60
2019-02-04T22:35:46.730Z,38.80
2019-02-04T22:40:48.094Z,38.80
2019-02-04T22:45:49.523Z,38.80
2019-02-04T22:50:50.960Z,38.60
2019-02-04T22:55:52.355Z,39.10
2019-02-04T23:01:05.005Z,38.70
2019-02-04T23:06:06.350Z,38.60
2019-02-04T23:11:07.745Z,38.80
2019-02-04T23:16:09.514Z,38.70
2019-02-04T23:21:11.077Z,38.70
2019-02-04T23:26:12.421Z,38.70
2019-02-04T23:31:13.812Z,38.70
2019-02-04T23:36:16.202Z,38.60
2019-02-04T23:41:17.541Z,38.60
2019-02-04T23:46:18.965Z,38.60
2019-02-04T23:51:20.401Z,38.60
2019-02-04T23:56:21.838Z,38.70
